Time;durP1;ratioP1;P1;durP2;ratioP2;P2;SDS_P1;SDS_P2;PMS_P1;PMS_P2;Temp;Humidity;BMP_temperature;BMP_pressure;BME280_temperature;BME280_humidity;BME280_pressure;Samples;Min_cycle;Max_cycle;Signal;HPM_P1;HPM_P2
2021/06/28 00:01:22;;;;;;;4.05;1.60;;;18.70;99.90;;;;;;5033326;28;20033;-82
2021/06/28 00:03:48;;;;;;;4.13;1.63;;;18.80;99.90;;;;;;5015677;28;20021;-82
2021/06/28 00:06:14;;;;;;;4.05;1.70;;;18.70;99.90;;;;;;5033377;28;20543;-82
2021/06/28 00:08:41;;;;;;;3.13;1.90;;;18.70;99.90;;;;;;5033082;28;20028;-82
2021/06/28 00:11:09;;;;;;;2.47;1.90;;;18.50;99.90;;;;;;5032685;28;20134;-82
2021/06/28 00:13:36;;;;;;;4.20;2.08;;;18.50;99.90;;;;;;5015518;28;20022;-83
2021/06/28 00:16:03;;;;;;;3.28;2.10;;;18.40;99.90;;;;;;5015493;28;20032;-82
2021/06/28 00:18:28;;;;;;;6.18;1.70;;;18.40;99.90;;;;;;5015565;28;20592;-82
2021/06/28 00:20:54;;;;;;;2.95;1.70;;;18.50;99.90;;;;;;5015438;28;20116;-82
2021/06/28 00:23:21;;;;;;;3.00;1.73;;;18.50;99.90;;;;;;5015470;28;20018;-82
2021/06/28 00:25:47;;;;;;;4.60;2.10;;;18.60;99.90;;;;;;5033581;28;20405;-82
2021/06/28 00:28:13;;;;;;;3.85;1.85;;;18.60;99.90;;;;;;5033223;28;20061;-82
2021/06/28 00:30:41;;;;;;;5.20;1.80;;;18.50;99.90;;;;;;5033147;28;20184;-82
2021/06/28 00:33:13;;;;;;;4.88;2.55;;;18.40;99.90;;;;;;5015402;28;20026;-82
2021/06/28 00:35:39;;;;;;;3.15;2.00;;;18.40;99.90;;;;;;5032942;28;20079;-82
2021/06/28 00:38:05;;;;;;;5.75;2.20;;;18.40;99.90;;;;;;5015412;28;20025;-82
2021/06/28 00:40:32;;;;;;;4.32;1.70;;;18.40;99.90;;;;;;5015244;28;20057;-82
2021/06/28 00:42:58;;;;;;;3.00;1.80;;;18.40;99.90;;;;;;5033269;28;20029;-82
2021/06/28 00:45:32;;;;;;;5.90;2.30;;;18.60;99.90;;;;;;5032935;28;20385;-82
2021/06/28 00:48:02;;;;;;;3.78;1.92;;;18.60;99.90;;;;;;5015260;28;20022;-82
2021/06/28 00:50:30;;;;;;;3.90;2.20;;;18.50;99.90;;;;;;5015330;28;20489;-82
2021/06/28 00:53:00;;;;;;;2.92;1.75;;;18.50;99.90;;;;;;5015235;28;20022;-82
2021/06/28 00:55:26;;;;;;;3.95;1.95;;;18.50;99.90;;;;;;5015190;28;20079;-82
2021/06/28 00:57:52;;;;;;;2.63;1.80;;;18.60;99.90;;;;;;5015167;28;20032;-82
2021/06/28 01:00:19;;;;;;;3.17;1.90;;;18.70;99.90;;;;;;5014961;28;20029;-82
2021/06/28 01:02:45;;;;;;;3.05;1.70;;;18.70;99.90;;;;;;5015076;28;20028;-82
2021/06/28 01:05:14;;;;;;;10.90;1.98;;;18.80;99.90;;;;;;5032778;28;20080;-82
2021/06/28 01:07:41;;;;;;;3.58;1.88;;;18.80;99.90;;;;;;5015087;28;20384;-82
2021/06/28 01:10:08;;;;;;;3.83;2.35;;;18.70;99.90;;;;;;5033085;28;20029;-82
2021/06/28 01:12:34;;;;;;;5.63;1.83;;;18.70;99.90;;;;;;5014982;28;20034;-82
2021/06/28 01:15:01;;;;;;;9.40;2.00;;;18.50;99.90;;;;;;5015524;28;20079;-82
2021/06/28 01:17:27;;;;;;;2.97;1.80;;;18.50;99.90;;;;;;5014961;28;20048;-82
2021/06/28 01:20:07;;;;;;;6.97;2.17;;;18.70;99.90;;;;;;5014856;28;20029;-82
2021/06/28 01:22:34;;;;;;;5.65;1.67;;;18.70;99.90;;;;;;5036354;28;20068;-82
2021/06/28 01:25:01;;;;;;;6.05;1.70;;;18.80;99.90;;;;;;5036279;28;20496;-83
2021/06/28 01:27:28;;;;;;;2.42;1.73;;;18.90;99.90;;;;;;5036204;28;20380;-82
2021/06/28 01:29:55;;;;;;;3.50;2.00;;;18.90;99.90;;;;;;5018364;28;20036;-82
2021/06/28 01:32:22;;;;;;;3.55;2.00;;;19.00;99.90;;;;;;5018359;28;20029;-83
2021/06/28 01:34:48;;;;;;;5.72;1.88;;;19.00;99.90;;;;;;5035797;28;20025;-82
2021/06/28 01:37:25;;;;;;;3.13;1.63;;;19.10;99.90;;;;;;5018327;28;20057;-82
2021/06/28 01:39:53;;;;;;;3.63;2.03;;;19.10;99.90;;;;;;5035943;28;20116;-82
2021/06/28 01:42:21;;;;;;;4.50;1.80;;;19.20;99.90;;;;;;5018187;28;20029;-82
2021/06/28 01:44:46;;;;;;;2.85;1.92;;;19.30;99.90;;;;;;5018133;28;20033;-83
2021/06/28 01:47:12;;;;;;;3.55;1.75;;;19.30;99.90;;;;;;5035839;28;20424;-83
2021/06/28 01:49:38;;;;;;;2.90;1.88;;;19.30;99.90;;;;;;5035721;28;20104;-83
2021/06/28 01:52:05;;;;;;;3.63;1.73;;;19.30;99.90;;;;;;5017989;28;20366;-82
2021/06/28 01:54:31;;;;;;;2.70;1.70;;;19.20;99.90;;;;;;5035741;28;20100;-82
2021/06/28 01:56:57;;;;;;;3.05;1.88;;;19.20;99.90;;;;;;5017895;28;20018;-83
2021/06/28 01:59:29;;;;;;;4.65;1.80;;;19.10;99.90;;;;;;5036141;28;20513;-83
2021/06/28 02:01:55;;;;;;;2.65;1.70;;;19.00;99.90;;;;;;5035521;28;20057;-83
2021/06/28 02:04:21;;;;;;;4.68;1.60;;;19.00;99.90;;;;;;5035487;28;20504;-83
2021/06/28 02:06:48;;;;;;;2.72;1.60;;;18.90;99.90;;;;;;5017754;28;20025;-83
2021/06/28 02:09:14;;;;;;;5.03;1.73;;;19.10;99.90;;;;;;5017642;28;20028;-83
2021/06/28 02:11:40;;;;;;;6.82;1.60;;;19.20;99.90;;;;;;5035413;28;20075;-83
2021/06/28 02:14:06;;;;;;;2.45;1.75;;;19.30;99.90;;;;;;5017474;28;20481;-83
2021/06/28 02:16:32;;;;;;;4.35;1.73;;;19.40;99.90;;;;;;5035245;28;20024;-83
2021/06/28 02:18:57;;;;;;;3.88;1.65;;;19.40;99.90;;;;;;5035239;28;20381;-83
2021/06/28 02:21:23;;;;;;;4.72;1.85;;;19.40;99.90;;;;;;5035162;28;20148;-83
2021/06/28 02:23:49;;;;;;;2.00;1.52;;;19.40;99.90;;;;;;5017409;28;20045;-83
2021/06/28 02:26:15;;;;;;;3.65;1.48;;;19.30;99.90;;;;;;5017566;28;20025;-83
2021/06/28 02:28:46;;;;;;;3.45;1.92;;;19.30;99.90;;;;;;5035070;28;20477;-83
2021/06/28 02:31:17;;;;;;;6.88;1.80;;;19.30;99.90;;;;;;5035283;28;20143;-82
2021/06/28 02:33:43;;;;;;;2.90;1.42;;;19.30;99.90;;;;;;5033930;28;20059;-83
2021/06/28 02:36:09;;;;;;;3.78;1.45;;;19.40;99.90;;;;;;5039533;28;20488;-82
2021/06/28 02:38:37;;;;;;;4.47;1.63;;;19.50;99.90;;;;;;5053588;28;20434;-82
2021/06/28 02:41:04;;;;;;;3.83;1.40;;;19.40;99.90;;;;;;5055192;28;20033;-82
2021/06/28 02:43:31;;;;;;;3.08;1.60;;;19.50;99.90;;;;;;5054732;28;20059;-82
2021/06/28 02:45:57;;;;;;;5.30;1.60;;;19.40;99.90;;;;;;5053461;28;20021;-83
2021/06/28 02:48:23;;;;;;;4.50;1.70;;;19.40;99.90;;;;;;5053346;28;20095;-82
2021/06/28 02:50:50;;;;;;;4.60;1.60;;;19.30;99.90;;;;;;5053350;28;20120;-83
2021/06/28 02:53:17;;;;;;;3.58;1.70;;;19.10;99.90;;;;;;5053253;28;20071;-82
2021/06/28 02:55:48;;;;;;;3.38;1.55;;;19.10;99.90;;;;;;5054519;28;20387;-82
2021/06/28 02:58:15;;;;;;;3.85;1.50;;;19.00;99.90;;;;;;5053278;28;20028;-81
2021/06/28 03:00:41;;;;;;;4.25;1.55;;;19.00;99.90;;;;;;5053069;28;20071;-82
2021/06/28 03:03:07;;;;;;;2.92;1.92;;;18.90;99.90;;;;;;5053105;28;20025;-82
2021/06/28 03:05:33;;;;;;;2.13;1.50;;;19.00;99.90;;;;;;5053095;28;20021;-82
2021/06/28 03:07:59;;;;;;;4.07;1.90;;;19.00;99.90;;;;;;5054256;28;20028;-82
2021/06/28 03:10:25;;;;;;;2.72;1.60;;;19.30;99.90;;;;;;5052974;28;20412;-82
2021/06/28 03:12:50;;;;;;;4.03;1.73;;;19.40;99.90;;;;;;5054147;28;20130;-82
2021/06/28 03:15:20;;;;;;;2.58;1.60;;;19.20;99.90;;;;;;5052856;28;20029;-82
2021/06/28 03:17:46;;;;;;;7.30;2.00;;;19.00;99.90;;;;;;5052835;28;20025;-82
2021/06/28 03:20:15;;;;;;;4.93;1.83;;;18.90;99.90;;;;;;5053967;28;20039;-82
2021/06/28 03:22:42;;;;;;;1.98;1.27;;;18.90;99.90;;;;;;5054011;28;20029;-82
2021/06/28 03:25:11;;;;;;;2.70;1.55;;;18.80;99.90;;;;;;5053032;28;20029;-82
2021/06/28 03:27:37;;;;;;;2.05;1.38;;;18.90;99.90;;;;;;5052640;28;20106;-82
2021/06/28 03:30:08;;;;;;;2.00;1.50;;;19.10;99.90;;;;;;5052549;28;20025;-82
2021/06/28 03:32:35;;;;;;;3.53;1.10;;;19.20;99.90;;;;;;5052588;28;20481;-82
2021/06/28 03:35:00;;;;;;;2.50;1.50;;;19.10;99.90;;;;;;5049956;28;20041;-82
2021/06/28 03:37:26;;;;;;;4.40;1.50;;;19.00;99.90;;;;;;5016208;28;20030;-82
2021/06/28 03:39:52;;;;;;;3.83;1.40;;;19.00;99.90;;;;;;4999650;28;20037;-82
2021/06/28 03:42:18;;;;;;;7.35;1.90;;;19.00;99.90;;;;;;5016024;28;20022;-82
2021/06/28 03:44:44;;;;;;;3.60;1.80;;;19.10;99.90;;;;;;5015754;28;20017;-82
2021/06/28 03:47:09;;;;;;;2.35;1.25;;;19.10;99.90;;;;;;5015897;28;20527;-82
2021/06/28 03:49:35;;;;;;;2.13;1.63;;;19.10;99.90;;;;;;5015867;28;20112;-82
2021/06/28 03:52:02;;;;;;;6.00;1.58;;;19.10;99.90;;;;;;5033529;28;20366;-82
2021/06/28 03:54:27;;;;;;;2.92;1.60;;;19.30;99.90;;;;;;5016111;28;20025;-82
2021/06/28 03:56:54;;;;;;;2.42;1.60;;;19.20;99.90;;;;;;5015741;28;20026;-82
2021/06/28 03:59:19;;;;;;;2.85;1.50;;;19.20;99.90;;;;;;5015679;28;20048;-82
2021/06/28 04:01:45;;;;;;;6.50;1.95;;;19.10;99.90;;;;;;5015649;28;20476;-82
2021/06/28 04:04:11;;;;;;;4.30;1.58;;;19.20;99.90;;;;;;5015747;28;20052;-82
2021/06/28 04:06:37;;;;;;;4.07;1.60;;;19.20;99.90;;;;;;5015661;28;20053;-82
2021/06/28 04:09:04;;;;;;;4.13;1.67;;;19.20;99.90;;;;;;5015595;28;20124;-82
2021/06/28 04:11:29;;;;;;;3.85;1.88;;;19.00;99.90;;;;;;5015599;28;20480;-82
2021/06/28 04:13:56;;;;;;;4.13;1.60;;;19.00;99.90;;;;;;5015617;28;20108;-82
2021/06/28 04:16:22;;;;;;;6.40;2.00;;;18.90;99.90;;;;;;5015526;28;20036;-82
2021/06/28 04:18:48;;;;;;;4.28;2.00;;;18.90;99.90;;;;;;5033461;28;20029;-82
2021/06/28 04:21:14;;;;;;;2.33;1.58;;;18.90;99.90;;;;;;5033146;28;20026;-82
2021/06/28 04:23:39;;;;;;;4.35;1.58;;;19.00;99.90;;;;;;5015515;28;20559;-82
2021/06/28 04:26:05;;;;;;;2.97;1.80;;;19.00;99.90;;;;;;5015511;28;20018;-82
2021/06/28 04:28:31;;;;;;;9.90;1.80;;;19.00;99.90;;;;;;5033124;28;20030;-82
2021/06/28 04:30:57;;;;;;;3.05;1.85;;;19.00;99.90;;;;;;5015420;28;20547;-82
2021/06/28 04:33:24;;;;;;;3.05;1.45;;;19.10;99.90;;;;;;5015470;28;20037;-82
2021/06/28 04:35:50;;;;;;;4.55;1.70;;;19.10;99.90;;;;;;5032342;28;20041;-82
2021/06/28 04:38:16;;;;;;;4.30;1.95;;;19.10;99.90;;;;;;5051770;28;20044;-82
2021/06/28 04:40:42;;;;;;;4.65;1.70;;;19.20;99.90;;;;;;5052908;28;20488;-82
2021/06/28 04:43:07;;;;;;;2.67;1.70;;;19.30;99.90;;;;;;5051683;28;20031;-82
2021/06/28 04:45:33;;;;;;;8.35;1.80;;;19.40;99.90;;;;;;5051715;28;20024;-82
2021/06/28 04:47:59;;;;;;;6.28;2.00;;;19.30;99.90;;;;;;5053461;28;20453;-82
2021/06/28 04:50:25;;;;;;;4.40;1.95;;;19.30;99.90;;;;;;5051557;28;20036;-82
2021/06/28 04:52:52;;;;;;;2.47;1.65;;;19.10;99.90;;;;;;5052835;28;20036;-82
2021/06/28 04:55:17;;;;;;;5.05;1.90;;;19.10;99.90;;;;;;5052876;28;20489;-82
2021/06/28 04:57:44;;;;;;;2.50;1.67;;;19.10;99.90;;;;;;5056830;28;20032;-82
2021/06/28 05:00:13;;;;;;;4.95;1.90;;;19.20;99.90;;;;;;5055653;28;20025;-82
2021/06/28 05:02:40;;;;;;;4.57;1.70;;;19.30;99.90;;;;;;5055896;28;20074;-82
2021/06/28 05:05:07;;;;;;;6.32;2.00;;;19.60;99.90;;;;;;5056028;28;20075;-82
2021/06/28 05:07:32;;;;;;;2.65;1.55;;;19.70;99.90;;;;;;5055647;28;20022;-82
2021/06/28 05:09:58;;;;;;;5.20;2.00;;;19.80;99.90;;;;;;5056677;28;20096;-82
2021/06/28 05:12:24;;;;;;;3.83;1.70;;;19.90;99.90;;;;;;5057468;28;20476;-82
2021/06/28 05:14:50;;;;;;;3.88;1.60;;;20.00;99.90;;;;;;5055821;28;20102;-82
2021/06/28 05:17:16;;;;;;;4.65;1.77;;;20.00;99.90;;;;;;5056623;28;20108;-82
2021/06/28 05:19:41;;;;;;;2.95;1.52;;;20.00;99.90;;;;;;5057822;28;20048;-82
2021/06/28 05:22:07;;;;;;;3.25;1.77;;;20.00;99.90;;;;;;5058390;28;20025;-82
2021/06/28 05:24:33;;;;;;;5.28;2.00;;;19.90;99.90;;;;;;5057084;28;20436;-82
2021/06/28 05:26:59;;;;;;;5.85;1.60;;;20.00;99.90;;;;;;5057350;28;20045;-82
2021/06/28 05:29:25;;;;;;;4.65;1.70;;;20.10;99.90;;;;;;5057138;28;20090;-83
2021/06/28 05:31:51;;;;;;;2.22;1.63;;;20.10;99.90;;;;;;5056712;28;20029;-82
2021/06/28 05:34:17;;;;;;;2.25;1.50;;;20.30;99.90;;;;;;5058591;28;20033;-82
2021/06/28 05:36:42;;;;;;;3.47;1.60;;;20.20;99.90;;;;;;5057204;28;20101;-82
2021/06/28 05:39:08;;;;;;;4.30;1.80;;;20.20;99.90;;;;;;5057904;28;20025;-82
2021/06/28 05:41:34;;;;;;;4.97;1.60;;;20.20;99.90;;;;;;5056171;28;20396;-83
2021/06/28 05:44:00;;;;;;;4.30;1.40;;;20.20;99.90;;;;;;5055829;28;20385;-83
2021/06/28 05:46:25;;;;;;;5.13;1.83;;;20.20;99.90;;;;;;5055530;28;20607;-82
2021/06/28 05:48:51;;;;;;;6.72;1.55;;;20.30;99.90;;;;;;5056887;28;20067;-83
2021/06/28 05:51:19;;;;;;;4.45;1.48;;;20.30;99.90;;;;;;5055077;28;20021;-78
2021/06/28 05:53:49;;;;;;;4.20;1.50;;;20.20;99.90;;;;;;5055643;28;20043;-78
2021/06/28 05:56:15;;;;;;;3.75;1.60;;;20.20;99.90;;;;;;5054349;28;20051;-78
2021/06/28 05:58:42;;;;;;;1.88;1.40;;;20.30;99.90;;;;;;5054396;28;20033;-78
2021/06/28 06:01:09;;;;;;;2.35;1.40;;;20.40;99.90;;;;;;5055615;28;20027;-78
2021/06/28 06:03:35;;;;;;;4.30;1.40;;;20.50;99.90;;;;;;5054241;28;20029;-78
2021/06/28 06:06:02;;;;;;;3.63;1.33;;;20.50;99.90;;;;;;5054166;28;20040;-78
2021/06/28 06:08:28;;;;;;;4.40;1.30;;;20.60;99.90;;;;;;5055376;28;20025;-78
2021/06/28 06:10:56;;;;;;;2.53;1.50;;;20.60;99.90;;;;;;5055423;28;20051;-78
2021/06/28 06:13:22;;;;;;;2.20;1.50;;;20.60;99.90;;;;;;5054100;28;20031;-78
2021/06/28 06:15:48;;;;;;;3.03;1.52;;;20.60;99.90;;;;;;5055266;28;20025;-78
2021/06/28 06:18:14;;;;;;;3.03;1.33;;;20.60;99.90;;;;;;5055551;28;20098;-78
2021/06/28 06:20:40;;;;;;;5.25;1.30;;;20.70;99.90;;;;;;5053872;28;20075;-78
2021/06/28 06:23:06;;;;;;;5.22;1.42;;;20.60;99.90;;;;;;5053917;28;20032;-78
2021/06/28 06:25:32;;;;;;;1.92;1.38;;;20.60;99.90;;;;;;5055148;28;20477;-78
2021/06/28 06:27:58;;;;;;;5.18;1.58;;;20.70;99.90;;;;;;5055156;28;20053;-79
2021/06/28 06:30:23;;;;;;;4.50;1.42;;;20.70;99.90;;;;;;5053775;28;20025;-78
2021/06/28 06:32:50;;;;;;;2.78;1.30;;;20.90;99.90;;;;;;5055008;28;20082;-78
2021/06/28 06:35:17;;;;;;;4.72;1.20;;;21.00;99.90;;;;;;5053455;28;20041;-78
2021/06/28 06:37:43;;;;;;;4.03;1.40;;;21.00;99.90;;;;;;5053613;28;20040;-79
2021/06/28 06:40:09;;;;;;;1.40;1.30;;;21.10;99.90;;;;;;5053474;28;20029;-78
2021/06/28 06:42:35;;;;;;;3.00;1.38;;;21.20;99.90;;;;;;5036972;28;20546;-79
2021/06/28 06:45:01;;;;;;;6.20;1.60;;;21.30;99.90;;;;;;5053570;28;20025;-79
2021/06/28 06:47:27;;;;;;;4.18;1.40;;;21.40;99.90;;;;;;5055096;28;20104;-79
2021/06/28 06:49:53;;;;;;;2.88;1.30;;;21.30;99.90;;;;;;5054690;28;20052;-79
2021/06/28 06:52:20;;;;;;;5.18;1.20;;;21.40;99.90;;;;;;5053360;28;20021;-78
2021/06/28 06:54:46;;;;;;;2.00;1.30;;;21.50;99.90;;;;;;5053363;28;20032;-78
2021/06/28 06:57:11;;;;;;;2.53;1.20;;;21.50;99.90;;;;;;5053341;28;20033;-78
2021/06/28 06:59:37;;;;;;;6.30;1.25;;;21.70;99.90;;;;;;5053198;28;20406;-79
2021/06/28 07:02:05;;;;;;;2.15;1.25;;;21.70;99.90;;;;;;5054425;28;20029;-78
2021/06/28 07:04:32;;;;;;;3.72;1.40;;;21.80;99.90;;;;;;5053169;28;20028;-78
2021/06/28 07:06:59;;;;;;;3.28;1.30;;;21.80;99.90;;;;;;5053106;28;20108;-79
2021/06/28 07:09:29;;;;;;;2.95;1.02;;;22.00;99.90;;;;;;5052994;28;20021;-78
2021/06/28 07:11:55;;;;;;;1.90;1.00;;;22.00;99.90;;;;;;5054529;28;20480;-78
2021/06/28 07:14:21;;;;;;;4.68;1.25;;;22.10;99.90;;;;;;5054521;28;20500;-79
2021/06/28 07:16:48;;;;;;;3.80;0.90;;;22.20;99.90;;;;;;5052884;28;20025;-79
2021/06/28 07:19:13;;;;;;;3.40;1.60;;;22.20;99.90;;;;;;5052403;28;20025;-79
2021/06/28 07:21:39;;;;;;;5.45;1.42;;;22.30;99.90;;;;;;5052759;28;20032;-79
2021/06/28 07:24:07;;;;;;;7.72;1.42;;;22.30;99.90;;;;;;5054045;28;20071;-79
2021/06/28 07:26:33;;;;;;;2.55;1.60;;;22.40;99.90;;;;;;5054303;28;20017;-79
2021/06/28 07:28:59;;;;;;;6.30;1.67;;;22.50;99.90;;;;;;5054025;28;20085;-79
2021/06/28 07:31:26;;;;;;;2.67;1.33;;;22.60;99.90;;;;;;5052630;28;20033;-79
2021/06/28 07:33:52;;;;;;;6.50;1.77;;;22.70;99.90;;;;;;5054099;28;20028;-79
2021/06/28 07:36:18;;;;;;;3.92;1.58;;;22.80;99.90;;;;;;5039639;28;20049;-79
2021/06/28 07:38:44;;;;;;;5.85;1.30;;;22.90;99.90;;;;;;5033849;28;20025;-79
2021/06/28 07:41:10;;;;;;;3.88;1.10;;;22.90;99.90;;;;;;5034000;28;20591;-79
2021/06/28 07:43:37;;;;;;;4.78;1.05;;;22.90;99.90;;;;;;5016061;28;20026;-79
2021/06/28 07:46:03;;;;;;;5.05;1.27;;;23.00;99.90;;;;;;5033721;28;20025;-79
2021/06/28 07:48:29;;;;;;;2.10;1.15;;;23.10;99.90;;;;;;5015997;28;20474;-79
2021/06/28 07:50:55;;;;;;;4.32;1.52;;;23.20;99.90;;;;;;5015787;28;20025;-79
2021/06/28 07:53:21;;;;;;;7.10;1.30;;;23.20;99.90;;;;;;5033856;28;20021;-79
2021/06/28 07:55:47;;;;;;;6.50;1.48;;;23.30;99.90;;;;;;5015946;28;20369;-79
2021/06/28 07:58:13;;;;;;;7.18;1.50;;;23.30;99.90;;;;;;5033575;28;20087;-79
2021/06/28 08:00:39;;;;;;;7.55;1.52;;;23.20;99.90;;;;;;5033681;28;20029;-79
2021/06/28 08:03:06;;;;;;;3.38;1.30;;;23.40;99.90;;;;;;5033756;28;20060;-79
2021/06/28 08:05:33;;;;;;;4.45;1.67;;;23.50;99.90;;;;;;5033441;28;20550;-79
2021/06/28 08:07:59;;;;;;;10.05;1.30;;;23.70;99.90;;;;;;5033471;28;20032;-79
2021/06/28 08:10:24;;;;;;;3.20;1.20;;;23.70;99.90;;;;;;5015658;28;20391;-79
2021/06/28 08:12:51;;;;;;;10.57;1.55;;;23.80;99.90;;;;;;5015716;28;20112;-79
2021/06/28 08:15:20;;;;;;;6.60;1.10;;;23.80;99.90;;;;;;5033323;28;20028;-79
2021/06/28 08:17:49;;;;;;;4.38;1.30;;;23.70;99.90;;;;;;5033248;28;20488;-79
2021/06/28 08:20:16;;;;;;;4.32;1.17;;;23.70;99.90;;;;;;5015927;28;20535;-79
2021/06/28 08:22:43;;;;;;;7.93;1.55;;;23.90;99.90;;;;;;5015600;28;20025;-79
2021/06/28 08:25:10;;;;;;;2.35;1.30;;;24.20;99.90;;;;;;5015511;28;20056;-79
2021/06/28 08:27:36;;;;;;;5.60;1.42;;;24.50;99.90;;;;;;5033219;28;20028;-79
2021/06/28 08:30:04;;;;;;;2.95;1.50;;;24.50;99.90;;;;;;5015457;28;20025;-79
2021/06/28 08:32:30;;;;;;;2.58;1.10;;;24.50;99.90;;;;;;5036857;28;20393;-79
2021/06/28 08:34:56;;;;;;;2.50;1.20;;;24.60;99.90;;;;;;5019289;28;20033;-79
2021/06/28 08:37:22;;;;;;;7.43;1.25;;;24.60;99.90;;;;;;5037241;28;20477;-79
2021/06/28 08:39:48;;;;;;;3.47;1.30;;;24.70;99.90;;;;;;5037150;28;20102;-81
2021/06/28 08:42:15;;;;;;;2.97;1.30;;;24.80;99.90;;;;;;5019387;28;20488;-81
2021/06/28 08:44:44;;;;;;;10.15;1.48;;;24.90;99.90;;;;;;5019421;28;20022;-81
2021/06/28 08:47:10;;;;;;;5.57;1.20;;;24.90;99.90;;;;;;5019250;28;20028;-81
2021/06/28 08:49:37;;;;;;;7.88;1.38;;;25.10;99.90;;;;;;5037016;28;20037;-81
2021/06/28 08:52:04;;;;;;;4.88;1.42;;;25.30;99.90;;;;;;5019145;28;20025;-81
2021/06/28 08:54:30;;;;;;;4.95;1.20;;;25.40;99.90;;;;;;5019209;28;20033;-81
2021/06/28 08:56:57;;;;;;;4.90;1.48;;;25.40;99.90;;;;;;5019093;28;20568;-81
2021/06/28 08:59:23;;;;;;;2.88;1.20;;;25.50;99.90;;;;;;5036761;28;20053;-80
2021/06/28 09:01:49;;;;;;;5.47;1.23;;;25.50;99.90;;;;;;5018998;28;20053;-81
2021/06/28 09:04:16;;;;;;;1.60;1.30;;;25.70;99.90;;;;;;5036774;28;20030;-81
2021/06/28 09:06:42;;;;;;;3.22;1.20;;;25.50;99.90;;;;;;5018905;28;20131;-81
2021/06/28 09:09:11;;;;;;;4.40;1.20;;;25.70;99.90;;;;;;5018901;28;20026;-81
2021/06/28 09:11:49;;;;;;;4.00;1.20;;;25.90;99.90;;;;;;5036605;28;20034;-81
2021/06/28 09:14:16;;;;;;;4.18;1.10;;;26.20;99.90;;;;;;5036860;28;20377;-81
2021/06/28 09:16:44;;;;;;;2.20;1.17;;;26.50;99.90;;;;;;5018740;28;20033;-80
2021/06/28 09:19:19;;;;;;;4.43;1.15;;;26.40;99.90;;;;;;5018707;28;20029;-80
2021/06/28 09:21:51;;;;;;;6.00;1.40;;;26.30;99.90;;;;;;5036324;28;20505;-80
2021/06/28 09:24:37;;;;;;;1.90;1.30;;;26.30;99.90;;;;;;5036429;28;20018;-80
2021/06/28 09:27:09;;;;;;;2.97;1.30;;;26.30;99.90;;;;;;5036616;28;20022;-81
2021/06/28 09:29:37;;;;;;;3.92;1.40;;;26.20;99.90;;;;;;5018518;28;20021;-81
2021/06/28 09:32:11;;;;;;;3.10;1.27;;;26.40;99.90;;;;;;5018388;28;20025;-81
2021/06/28 09:34:38;;;;;;;7.03;1.20;;;26.50;99.90;;;;;;5018182;28;20108;-81
2021/06/28 09:37:04;;;;;;;5.05;0.90;;;26.30;99.90;;;;;;5036118;28;20029;-81
2021/06/28 09:39:38;;;;;;;2.08;1.10;;;26.20;99.90;;;;;;5036016;28;20385;-81
2021/06/28 09:42:07;;;;;;;3.00;1.17;;;26.40;99.90;;;;;;5035273;28;20061;-81
2021/06/28 09:44:34;;;;;;;2.78;1.20;;;26.60;99.90;;;;;;5035948;28;20096;-81
2021/06/28 09:47:06;;;;;;;2.63;1.30;;;26.90;99.90;;;;;;5018220;28;20017;-81
2021/06/28 09:49:32;;;;;;;7.65;1.20;;;27.20;99.90;;;;;;5018131;28;20029;-80
2021/06/28 09:51:58;;;;;;;2.47;1.25;;;27.30;99.90;;;;;;5035888;28;20029;-81
2021/06/28 09:54:24;;;;;;;2.53;1.10;;;27.20;99.90;;;;;;5018121;28;20025;-81
2021/06/28 09:56:52;;;;;;;2.85;1.08;;;27.10;99.90;;;;;;5018077;28;20033;-81
2021/06/28 09:59:25;;;;;;;4.20;1.23;;;27.40;99.90;;;;;;5018102;28;20026;-81
2021/06/28 10:02:13;;;;;;;1.25;0.90;;;27.50;99.90;;;;;;5018189;28;20485;-83
2021/06/28 10:05:10;;;;;;;5.28;1.20;;;27.60;99.90;;;;;;5017922;28;20489;-83
2021/06/28 10:07:38;;;;;;;4.70;1.27;;;27.90;99.90;;;;;;5035603;28;20064;-83
2021/06/28 10:10:08;;;;;;;2.28;1.10;;;28.00;99.90;;;;;;5035830;28;20049;-83
2021/06/28 10:12:35;;;;;;;2.10;1.20;;;28.00;99.90;;;;;;5017718;28;20180;-83
2021/06/28 10:15:00;;;;;;;4.53;1.45;;;28.30;99.90;;;;;;5017737;28;20036;-83
2021/06/28 10:17:28;;;;;;;5.75;1.42;;;28.50;99.90;;;;;;5035438;28;20017;-83
2021/06/28 10:19:54;;;;;;;6.47;1.35;;;28.50;99.90;;;;;;5017546;28;20079;-83
2021/06/28 10:22:19;;;;;;;3.80;1.40;;;28.40;99.90;;;;;;5017689;28;20030;-83
2021/06/28 10:24:45;;;;;;;2.83;1.15;;;28.60;99.90;;;;;;5017546;28;20026;-83
2021/06/28 10:27:11;;;;;;;6.03;1.27;;;28.50;99.90;;;;;;5017558;28;20036;-83
2021/06/28 10:29:37;;;;;;;3.47;1.17;;;28.80;99.90;;;;;;5017507;28;20018;-83
2021/06/28 10:32:08;;;;;;;6.43;1.25;;;29.00;99.90;;;;;;5017358;28;20029;-83
2021/06/28 10:34:34;;;;;;;4.75;1.20;;;29.20;99.90;;;;;;5035392;28;20104;-83
2021/06/28 10:37:03;;;;;;;3.40;1.10;;;28.90;99.90;;;;;;5053471;28;20049;-83
2021/06/28 10:39:31;;;;;;;3.33;1.20;;;28.70;99.90;;;;;;5053720;28;20480;-83
2021/06/28 10:41:59;;;;;;;3.75;0.90;;;28.90;99.90;;;;;;5053561;28;20029;-83
2021/06/28 10:44:44;;;;;;;2.53;1.05;;;29.30;99.90;;;;;;5054848;28;20025;-83
2021/06/28 10:47:10;;;;;;;8.13;1.20;;;29.30;99.90;;;;;;5053548;28;20040;-83
2021/06/28 10:49:42;;;;;;;7.75;1.27;;;29.60;99.90;;;;;;5053468;28;20021;-83
2021/06/28 10:52:07;;;;;;;5.20;1.75;;;29.50;99.90;;;;;;5053546;28;20478;-83
2021/06/28 10:54:36;;;;;;;3.33;0.98;;;29.40;99.90;;;;;;5052500;28;20029;-83
2021/06/28 10:57:03;;;;;;;3.40;1.30;;;29.20;99.90;;;;;;5053306;28;20025;-83
2021/06/28 10:59:31;;;;;;;3.75;1.15;;;29.30;99.90;;;;;;5054545;28;20048;-83
2021/06/28 11:01:58;;;;;;;6.15;1.45;;;29.60;99.90;;;;;;5054475;28;20032;-83
2021/06/28 11:04:30;;;;;;;3.35;1.05;;;29.60;99.90;;;;;;5054152;28;20075;-83
2021/06/28 11:07:03;;;;;;;2.13;1.30;;;29.90;99.90;;;;;;5054804;28;20112;-83
2021/06/28 11:09:57;;;;;;;3.92;1.17;;;29.90;99.90;;;;;;5054694;28;20025;-83
2021/06/28 11:12:34;;;;;;;3.22;1.10;;;30.20;99.90;;;;;;5054642;28;20021;-83
2021/06/28 11:15:06;;;;;;;2.30;1.20;;;30.30;99.90;;;;;;5053047;28;20057;-83
2021/06/28 11:17:47;;;;;;;3.90;1.33;;;30.00;99.90;;;;;;5056416;28;20397;-83
2021/06/28 11:20:30;;;;;;;1.27;1.00;;;29.90;99.90;;;;;;5053934;28;20029;-83
2021/06/28 11:23:10;;;;;;;4.30;1.23;;;29.90;99.90;;;;;;5053311;28;20021;-82
2021/06/28 11:25:51;;;;;;;5.18;1.25;;;30.10;99.90;;;;;;5054196;28;20047;-82
2021/06/28 11:28:16;;;;;;;4.18;1.55;;;30.40;99.90;;;;;;5052873;28;20017;-82
2021/06/28 11:30:50;;;;;;;3.03;1.35;;;30.80;99.90;;;;;;5052745;28;20115;-82
2021/06/28 11:33:16;;;;;;;3.43;1.20;;;30.40;99.90;;;;;;5053792;28;20025;-83
2021/06/28 11:35:45;;;;;;;5.80;1.10;;;30.10;99.90;;;;;;5055763;28;20427;-82
2021/06/28 11:38:16;;;;;;;3.65;1.20;;;30.20;99.90;;;;;;5056295;28;20021;-83
2021/06/28 11:40:45;;;;;;;6.40;1.50;;;30.20;99.90;;;;;;5065483;28;20059;-83
2021/06/28 11:43:38;;;;;;;4.43;1.20;;;30.20;99.90;;;;;;5058906;28;20113;-83
2021/06/28 11:46:06;;;;;;;3.13;1.48;;;30.30;99.90;;;;;;5055472;28;20035;-83
2021/06/28 11:48:48;;;;;;;3.80;1.23;;;30.30;99.90;;;;;;5053695;28;20480;-83
2021/06/28 11:51:20;;;;;;;3.40;1.58;;;30.40;99.90;;;;;;5052455;28;20025;-83
2021/06/28 11:54:08;;;;;;;2.63;1.10;;;30.90;99.90;;;;;;5052363;28;20392;-83
2021/06/28 11:57:01;;;;;;;6.63;1.30;;;31.30;99.90;;;;;;5053552;28;20028;-83
2021/06/28 11:59:29;;;;;;;5.68;1.30;;;31.40;99.90;;;;;;5053536;28;20036;-83
2021/06/28 12:01:57;;;;;;;5.00;1.50;;;31.10;99.90;;;;;;5053608;28;20017;-83
2021/06/28 12:04:33;;;;;;;9.00;1.52;;;31.50;99.90;;;;;;5052022;28;20384;-83
2021/06/28 12:06:59;;;;;;;2.60;1.40;;;31.50;99.90;;;;;;5052311;28;20021;-83
2021/06/28 12:09:31;;;;;;;7.53;1.55;;;31.10;99.90;;;;;;5053333;28;20029;-83
2021/06/28 12:12:00;;;;;;;2.08;1.50;;;30.90;99.90;;;;;;5052076;28;20021;-83
2021/06/28 12:14:35;;;;;;;4.28;1.30;;;31.00;99.90;;;;;;5052048;28;20021;-83
2021/06/28 12:17:07;;;;;;;2.55;1.30;;;31.10;99.90;;;;;;5053370;28;20060;-83
2021/06/28 12:19:34;;;;;;;4.10;1.40;;;31.40;99.90;;;;;;5056573;28;20498;-83
2021/06/28 12:22:10;;;;;;;2.00;1.13;;;31.20;99.90;;;;;;5056448;28;20021;-83
2021/06/28 12:24:36;;;;;;;3.75;1.48;;;31.20;99.90;;;;;;5051995;28;20116;-83
2021/06/28 12:27:04;;;;;;;2.90;1.40;;;31.60;99.90;;;;;;5053144;28;20476;-83
2021/06/28 12:29:42;;;;;;;3.10;1.10;;;32.10;99.90;;;;;;5052029;28;20060;-83
2021/06/28 12:32:23;;;;;;;3.53;1.48;;;31.70;99.90;;;;;;5052179;28;20029;-83
2021/06/28 12:35:19;;;;;;;4.40;1.35;;;31.50;99.90;;;;;;5051134;28;20029;-83
2021/06/28 12:37:51;;;;;;;2.85;1.45;;;31.30;99.90;;;;;;5033242;28;20033;-83
2021/06/28 12:40:30;;;;;;;3.08;1.40;;;31.00;99.90;;;;;;5015352;28;20083;-83
2021/06/28 12:42:58;;;;;;;7.25;1.52;;;30.70;99.90;;;;;;5033401;28;20024;-83
2021/06/28 12:45:34;;;;;;;3.40;1.27;;;31.10;99.90;;;;;;5015427;28;20022;-84
2021/06/28 12:48:01;;;;;;;4.65;1.30;;;31.50;99.90;;;;;;5033319;28;20018;-83
2021/06/28 12:50:33;;;;;;;2.58;1.30;;;31.60;99.90;;;;;;5015275;28;20033;-83